createdAt,value
2022-07-31T00:01:59.054Z,6.18
2022-07-31T00:04:45.154Z,6.70
2022-07-31T00:07:31.041Z,6.37
2022-07-31T00:10:17.235Z,6.27
2022-07-31T00:13:03.643Z,6.10
2022-07-31T00:15:49.926Z,6.13
2022-07-31T00:18:35.925Z,6.67
2022-07-31T00:21:21.816Z,6.50
2022-07-31T00:24:07.838Z,6.45
2022-07-31T00:26:53.752Z,7.00
2022-07-31T00:29:40.184Z,6.70
2022-07-31T00:32:26.237Z,6.40
2022-07-31T00:35:14.136Z,6.13
2022-07-31T00:38:25.577Z,6.65
2022-07-31T00:41:06.375Z,6.43
2022-07-31T00:43:52.902Z,6.38
2022-07-31T00:46:39.022Z,6.43
2022-07-31T00:49:26.714Z,6.50
2022-07-31T00:52:23.294Z,6.20
2022-07-31T00:55:09.745Z,6.10
2022-07-31T01:00:42.376Z,6.32
2022-07-31T01:03:28.581Z,7.32
2022-07-31T01:06:15.402Z,7.28
2022-07-31T01:09:01.370Z,7.93
2022-07-31T01:12:02.875Z,7.43
2022-07-31T01:14:54.002Z,6.70
2022-07-31T01:17:41.667Z,7.47
2022-07-31T01:20:29.199Z,6.85
2022-07-31T01:23:34.953Z,6.90
2022-07-31T01:26:56.252Z,6.25
2022-07-31T01:29:46.345Z,6.28
2022-07-31T01:32:38.530Z,5.57
2022-07-31T01:35:35.265Z,5.63
2022-07-31T01:38:25.937Z,5.30
2022-07-31T01:41:15.767Z,5.28
2022-07-31T01:44:04.432Z,5.63
2022-07-31T01:46:53.235Z,5.22
2022-07-31T01:49:41.766Z,4.50
2022-07-31T01:52:30.054Z,4.95
2022-07-31T01:55:17.670Z,4.40
2022-07-31T01:58:05.748Z,4.75
2022-07-31T02:00:55.216Z,4.60
2022-07-31T02:03:45.591Z,4.90
2022-07-31T02:06:35.158Z,4.63
2022-07-31T02:09:23.277Z,4.60
2022-07-31T02:12:12.003Z,4.70
2022-07-31T02:14:58.627Z,3.85
2022-07-31T02:17:46.133Z,3.97
2022-07-31T02:20:56.348Z,4.15
2022-07-31T02:23:44.978Z,4.55
2022-07-31T02:26:34.553Z,4.38
2022-07-31T02:29:22.833Z,4.53
2022-07-31T02:32:09.204Z,4.53
2022-07-31T02:34:56.865Z,4.50
2022-07-31T02:37:44.962Z,4.40
2022-07-31T02:40:31.262Z,4.15
2022-07-31T02:43:18.748Z,4.65
2022-07-31T02:46:06.787Z,4.38
2022-07-31T02:48:53.908Z,4.70
2022-07-31T02:51:43.575Z,4.40
2022-07-31T02:54:30.249Z,4.32
2022-07-31T02:57:17.457Z,4.20
2022-07-31T03:00:30.950Z,4.25
2022-07-31T03:03:17.803Z,3.90
2022-07-31T03:06:04.515Z,3.83
2022-07-31T03:08:51.757Z,4.05
2022-07-31T03:11:40.933Z,3.88
2022-07-31T03:14:32.669Z,3.95
2022-07-31T03:17:20.035Z,3.70
2022-07-31T03:20:07.905Z,4.00
2022-07-31T03:22:53.961Z,3.60
2022-07-31T03:25:42.058Z,3.60
2022-07-31T03:28:28.897Z,3.70
2022-07-31T03:31:15.341Z,3.35
2022-07-31T03:34:01.925Z,3.58
2022-07-31T03:36:48.837Z,3.40
2022-07-31T03:39:35.574Z,3.55
2022-07-31T03:42:28.497Z,3.38
2022-07-31T03:45:16.274Z,3.35
2022-07-31T03:48:02.995Z,3.45
2022-07-31T03:50:50.549Z,3.50
2022-07-31T03:53:37.452Z,4.25
2022-07-31T03:56:25.352Z,3.58
2022-07-31T03:59:12.057Z,3.85
2022-07-31T04:02:01.398Z,3.75
2022-07-31T04:04:58.074Z,3.47
2022-07-31T04:10:30.938Z,3.60
2022-07-31T04:13:17.852Z,3.97
2022-07-31T04:16:03.931Z,3.72
2022-07-31T04:18:50.980Z,3.60
2022-07-31T04:21:37.974Z,3.60
2022-07-31T04:27:36.155Z,3.83
2022-07-31T04:30:35.022Z,3.55
2022-07-31T04:33:23.591Z,3.85
2022-07-31T04:36:29.078Z,3.70
2022-07-31T04:39:15.850Z,3.38
2022-07-31T04:42:02.454Z,3.38
2022-07-31T04:44:52.014Z,3.33
2022-07-31T04:47:40.794Z,3.13
2022-07-31T04:50:26.661Z,3.10
2022-07-31T04:53:17.593Z,3.50
2022-07-31T04:56:23.256Z,3.38
2022-07-31T04:59:12.414Z,3.40
2022-07-31T05:02:01.415Z,3.67
2022-07-31T05:04:52.622Z,3.15
2022-07-31T05:07:45.679Z,3.67
2022-07-31T05:10:55.082Z,3.40
2022-07-31T05:13:42.044Z,3.40
2022-07-31T05:16:29.354Z,3.55
2022-07-31T05:19:16.886Z,3.33
2022-07-31T05:22:41.316Z,3.78
2022-07-31T05:25:52.749Z,3.55
2022-07-31T05:28:39.273Z,3.38
2022-07-31T05:31:25.806Z,3.55
2022-07-31T05:34:11.693Z,3.22
2022-07-31T05:37:01.066Z,3.10
2022-07-31T05:39:49.122Z,3.42
2022-07-31T05:42:55.225Z,3.50
2022-07-31T05:46:06.170Z,3.40
2022-07-31T05:48:52.322Z,3.55
2022-07-31T05:51:42.374Z,3.50
2022-07-31T05:54:29.003Z,3.15
2022-07-31T05:57:34.622Z,3.20
2022-07-31T06:00:22.531Z,3.60
2022-07-31T06:03:10.759Z,3.38
2022-07-31T06:06:17.040Z,3.15
2022-07-31T06:09:05.053Z,3.97
2022-07-31T06:11:55.774Z,3.33
2022-07-31T06:14:41.745Z,3.47
2022-07-31T06:17:51.247Z,3.35
2022-07-31T06:23:34.469Z,3.30
2022-07-31T06:26:43.751Z,3.67
2022-07-31T06:29:41.467Z,3.10
2022-07-31T06:32:29.101Z,4.75
2022-07-31T06:35:15.103Z,3.08
2022-07-31T06:38:30.740Z,3.03
2022-07-31T06:41:44.405Z,3.15
2022-07-31T06:44:49.155Z,3.13
2022-07-31T06:47:54.490Z,3.10
2022-07-31T06:51:28.280Z,3.03
2022-07-31T06:54:12.025Z,2.97
2022-07-31T06:56:58.402Z,3.13
2022-07-31T06:59:44.641Z,3.05
2022-07-31T07:02:31.425Z,3.20
2022-07-31T07:05:17.989Z,3.30
2022-07-31T07:08:09.174Z,3.08
2022-07-31T07:10:55.356Z,3.33
2022-07-31T07:13:49.473Z,2.95
2022-07-31T07:16:36.943Z,2.78
2022-07-31T07:19:22.854Z,3.17
2022-07-31T07:22:08.941Z,3.20
2022-07-31T07:24:56.594Z,2.90
2022-07-31T07:27:42.972Z,3.30
2022-07-31T07:30:29.505Z,3.10
2022-07-31T07:33:41.489Z,3.17
2022-07-31T07:36:25.308Z,3.53
2022-07-31T07:39:15.997Z,2.92
2022-07-31T07:42:03.259Z,3.60
2022-07-31T07:44:49.904Z,2.90
2022-07-31T07:48:04.900Z,2.67
2022-07-31T07:50:43.954Z,3.00
2022-07-31T07:53:47.125Z,2.90
2022-07-31T07:56:39.097Z,2.70
2022-07-31T07:59:45.528Z,3.15
2022-07-31T08:03:47.439Z,3.03
2022-07-31T08:05:59.630Z,3.17
2022-07-31T08:08:45.541Z,2.90
2022-07-31T08:11:31.761Z,3.03
2022-07-31T08:14:28.897Z,3.28
2022-07-31T08:17:34.018Z,2.80
2022-07-31T08:20:20.733Z,2.85
2022-07-31T08:23:08.158Z,3.00
2022-07-31T08:25:55.383Z,2.67
2022-07-31T08:28:50.642Z,3.00
2022-07-31T08:34:45.817Z,3.10
2022-07-31T08:37:52.338Z,2.90
2022-07-31T08:40:43.205Z,2.72
2022-07-31T08:44:00.066Z,2.90
2022-07-31T08:46:39.163Z,3.40
2022-07-31T08:49:29.488Z,3.05
2022-07-31T08:52:25.024Z,3.15
2022-07-31T08:55:55.195Z,2.92
2022-07-31T08:58:24.554Z,3.30
2022-07-31T09:01:15.126Z,3.22
2022-07-31T09:04:02.281Z,2.78
2022-07-31T09:06:48.489Z,2.95
2022-07-31T09:09:50.959Z,3.00
2022-07-31T09:12:38.056Z,3.22
2022-07-31T09:15:31.442Z,2.60
2022-07-31T09:18:22.110Z,3.00
2022-07-31T09:21:15.670Z,2.80
2022-07-31T09:24:01.812Z,3.20
2022-07-31T09:26:53.607Z,2.40
2022-07-31T09:29:45.385Z,3.00
2022-07-31T09:32:45.874Z,2.30
2022-07-31T09:35:50.788Z,2.60
2022-07-31T09:38:41.063Z,2.10
2022-07-31T09:42:00.954Z,2.40
2022-07-31T09:45:18.764Z,2.47
2022-07-31T09:48:08.298Z,2.10
2022-07-31T09:51:05.494Z,2.30
2022-07-31T09:53:56.489Z,2.08
2022-07-31T09:57:15.017Z,1.85
2022-07-31T10:00:11.768Z,1.87
2022-07-31T10:03:03.674Z,1.60
2022-07-31T10:05:51.774Z,1.63
2022-07-31T10:08:40.161Z,1.42
2022-07-31T10:11:46.206Z,1.90
2022-07-31T10:14:41.192Z,1.60
2022-07-31T10:17:35.997Z,2.60
2022-07-31T10:20:37.538Z,1.67
2022-07-31T10:23:54.103Z,1.80
2022-07-31T10:27:00.294Z,2.08
2022-07-31T10:29:49.777Z,1.73
2022-07-31T10:32:37.177Z,2.00
2022-07-31T10:36:05.770Z,2.03
2022-07-31T10:39:24.833Z,1.92
2022-07-31T10:42:31.573Z,2.20
2022-07-31T10:45:18.544Z,2.00
2022-07-31T10:48:12.546Z,1.90
2022-07-31T10:51:27.334Z,1.95
2022-07-31T10:54:17.750Z,2.05
2022-07-31T10:57:32.890Z,2.03
2022-07-31T11:00:38.670Z,1.95
2022-07-31T11:03:49.651Z,1.80
2022-07-31T11:06:40.792Z,1.90
2022-07-31T11:09:51.181Z,2.00
2022-07-31T11:13:05.080Z,1.70
2022-07-31T11:16:09.969Z,2.38
2022-07-31T11:19:09.556Z,1.90
2022-07-31T11:21:57.367Z,1.88
2022-07-31T11:24:55.409Z,1.75
2022-07-31T11:27:41.415Z,1.98
2022-07-31T11:30:27.485Z,1.98
2022-07-31T11:33:13.486Z,1.90
2022-07-31T11:36:07.882Z,2.03
2022-07-31T11:39:00.535Z,1.90
2022-07-31T11:41:48.610Z,1.85
2022-07-31T11:44:35.770Z,1.90
2022-07-31T11:48:09.705Z,1.63
2022-07-31T11:50:30.973Z,1.70
2022-07-31T11:53:18.523Z,1.60
2022-07-31T11:56:05.355Z,1.60
2022-07-31T11:58:53.791Z,1.70
2022-07-31T12:01:40.815Z,1.52
2022-07-31T12:04:27.141Z,1.38
2022-07-31T12:07:14.074Z,1.50
2022-07-31T12:10:03.417Z,1.63
2022-07-31T12:12:50.364Z,1.90
2022-07-31T12:15:36.749Z,1.75
2022-07-31T12:18:23.185Z,1.50
2022-07-31T12:21:12.053Z,1.48
2022-07-31T12:23:58.363Z,1.67
2022-07-31T12:26:50.950Z,1.60
2022-07-31T12:29:38.851Z,1.90
2022-07-31T12:32:26.479Z,1.80
2022-07-31T12:35:12.649Z,1.80
2022-07-31T12:37:58.853Z,1.95
2022-07-31T12:40:48.194Z,1.70
2022-07-31T12:43:34.179Z,1.80
2022-07-31T12:46:37.874Z,1.70
2022-07-31T12:49:24.153Z,1.80
2022-07-31T12:54:57.046Z,2.10
2022-07-31T12:57:50.482Z,2.00
2022-07-31T13:00:40.131Z,2.13
2022-07-31T13:03:39.065Z,1.83
2022-07-31T13:06:32.152Z,1.95
2022-07-31T13:09:18.708Z,2.15
2022-07-31T13:12:05.480Z,1.95
2022-07-31T13:14:51.662Z,2.10
2022-07-31T13:17:41.040Z,1.63
2022-07-31T13:20:31.079Z,1.58
2022-07-31T13:23:17.555Z,1.40
2022-07-31T13:26:03.556Z,1.67
2022-07-31T13:28:49.561Z,1.65
2022-07-31T13:31:35.545Z,2.03
2022-07-31T13:34:21.467Z,1.42
2022-07-31T13:37:07.632Z,1.25
2022-07-31T13:39:53.982Z,1.10
2022-07-31T13:42:40.191Z,1.50
2022-07-31T13:45:26.623Z,1.30
2022-07-31T13:48:13.293Z,1.40
2022-07-31T13:50:59.725Z,1.50
2022-07-31T13:53:46.322Z,1.73
2022-07-31T13:56:38.781Z,1.63
2022-07-31T13:59:29.644Z,1.98
2022-07-31T14:02:16.038Z,1.90
2022-07-31T14:05:02.714Z,1.90
2022-07-31T14:07:51.836Z,1.63
2022-07-31T14:10:39.621Z,1.70
2022-07-31T14:13:28.970Z,1.90
2022-07-31T14:16:14.851Z,1.60
2022-07-31T14:19:01.477Z,1.85
2022-07-31T14:21:50.040Z,1.80
2022-07-31T14:24:49.372Z,2.00
2022-07-31T14:27:38.689Z,1.80
2022-07-31T14:30:25.094Z,1.52
2022-07-31T14:33:13.781Z,1.73
2022-07-31T14:35:59.971Z,1.80
2022-07-31T14:38:45.975Z,1.75
2022-07-31T14:41:31.901Z,1.60
2022-07-31T14:44:21.459Z,1.70
2022-07-31T14:47:15.147Z,2.00
2022-07-31T14:50:07.334Z,2.03
2022-07-31T14:52:56.705Z,1.85
2022-07-31T14:55:43.017Z,1.90
2022-07-31T14:58:28.999Z,2.25
2022-07-31T15:01:15.535Z,1.77
2022-07-31T15:04:02.142Z,1.70
2022-07-31T15:06:56.117Z,1.60
2022-07-31T15:09:49.071Z,1.50
2022-07-31T15:12:35.469Z,1.75
2022-07-31T15:15:21.702Z,1.50
2022-07-31T15:18:07.600Z,1.65
2022-07-31T15:20:54.303Z,1.63
2022-07-31T15:23:40.506Z,1.73
2022-07-31T15:26:26.412Z,1.67
2022-07-31T15:29:12.509Z,3.53
2022-07-31T15:31:58.786Z,1.50
2022-07-31T15:34:44.752Z,1.65
2022-07-31T15:37:33.923Z,1.60
2022-07-31T15:40:20.177Z,1.60
2022-07-31T15:43:06.101Z,1.85
2022-07-31T15:45:51.999Z,1.60
2022-07-31T15:48:38.358Z,1.60
2022-07-31T15:51:24.569Z,1.60
2022-07-31T15:54:10.534Z,1.50
2022-07-31T15:56:56.748Z,1.80
2022-07-31T15:59:43.494Z,1.60
2022-07-31T16:05:21.837Z,1.30
2022-07-31T16:08:31.561Z,1.77
2022-07-31T16:11:20.860Z,1.77
2022-07-31T16:14:07.010Z,1.80
2022-07-31T16:16:52.988Z,1.50
2022-07-31T16:19:42.961Z,2.00
2022-07-31T16:22:28.950Z,1.77
2022-07-31T16:25:15.038Z,1.85
2022-07-31T16:28:00.950Z,1.60
2022-07-31T16:30:47.044Z,1.55
2022-07-31T16:33:33.045Z,1.92
2022-07-31T16:36:20.931Z,1.60
2022-07-31T16:39:20.061Z,3.00
2022-07-31T16:42:06.966Z,3.13
2022-07-31T16:44:56.485Z,1.77
2022-07-31T16:47:51.107Z,1.83
2022-07-31T16:50:37.877Z,1.45
2022-07-31T16:54:10.911Z,1.70
2022-07-31T16:56:32.962Z,1.63
2022-07-31T16:59:19.019Z,1.60
2022-07-31T17:02:06.406Z,1.73
2022-07-31T17:04:54.225Z,1.95
2022-07-31T17:07:40.491Z,1.58
2022-07-31T17:10:27.079Z,1.55
2022-07-31T17:13:14.150Z,1.70
2022-07-31T17:16:00.207Z,1.70
2022-07-31T17:18:49.472Z,1.73
2022-07-31T17:21:38.846Z,1.65
2022-07-31T17:24:31.638Z,1.67
2022-07-31T17:27:18.770Z,1.38
2022-07-31T17:30:05.493Z,1.58
2022-07-31T17:32:51.595Z,1.40
2022-07-31T17:35:37.662Z,1.63
2022-07-31T17:41:24.655Z,1.48
2022-07-31T17:44:12.205Z,1.33
2022-07-31T17:46:58.319Z,1.92
2022-07-31T17:49:45.279Z,2.08
2022-07-31T17:52:31.167Z,2.08
2022-07-31T17:55:16.997Z,1.50
2022-07-31T17:58:02.963Z,1.63
2022-07-31T18:00:49.552Z,1.80
2022-07-31T18:03:35.494Z,1.65
2022-07-31T18:06:21.494Z,1.45
2022-07-31T18:09:07.339Z,1.73
2022-07-31T18:11:54.580Z,1.50
2022-07-31T18:14:40.877Z,1.58
2022-07-31T18:17:30.642Z,1.75
2022-07-31T18:20:19.346Z,1.42
2022-07-31T18:23:05.294Z,1.35
2022-07-31T18:25:58.401Z,1.63
2022-07-31T18:28:44.635Z,1.65
2022-07-31T18:31:34.394Z,1.60
2022-07-31T18:34:21.930Z,1.73
2022-07-31T18:37:07.823Z,1.70
2022-07-31T18:39:54.982Z,1.70
2022-07-31T18:42:41.182Z,1.42
2022-07-31T18:45:27.701Z,1.77
2022-07-31T18:51:04.376Z,1.70
2022-07-31T18:53:51.948Z,1.70
2022-07-31T18:56:40.679Z,1.80
2022-07-31T18:59:26.869Z,1.73
2022-07-31T19:02:12.761Z,2.10
2022-07-31T19:04:58.811Z,1.90
2022-07-31T19:07:44.696Z,2.00
2022-07-31T19:10:35.160Z,1.90
2022-07-31T19:13:21.532Z,1.67
2022-07-31T19:16:07.583Z,2.35
2022-07-31T19:18:53.720Z,2.20
2022-07-31T19:21:42.968Z,2.13
2022-07-31T19:24:29.577Z,2.03
2022-07-31T19:27:16.214Z,2.03
2022-07-31T19:30:02.850Z,2.40
2022-07-31T19:32:49.029Z,2.80
2022-07-31T19:35:34.940Z,2.50
2022-07-31T19:38:44.286Z,2.45
2022-07-31T19:41:30.455Z,2.60
2022-07-31T19:44:16.406Z,2.60
2022-07-31T19:47:02.397Z,2.42
2022-07-31T19:49:48.374Z,2.33
2022-07-31T19:55:20.865Z,2.40
2022-07-31T19:58:06.769Z,2.50
2022-07-31T20:00:52.746Z,2.28
2022-07-31T20:03:39.003Z,2.40
2022-07-31T20:06:26.215Z,2.30
2022-07-31T20:09:16.591Z,2.13
2022-07-31T20:12:03.041Z,2.40
2022-07-31T20:17:35.730Z,2.30
2022-07-31T20:20:21.618Z,2.67
2022-07-31T20:23:07.659Z,2.13
2022-07-31T20:25:54.159Z,2.00
2022-07-31T20:28:40.604Z,2.20
2022-07-31T20:31:26.852Z,2.05
2022-07-31T20:34:13.278Z,2.67
2022-07-31T20:36:59.766Z,2.10
2022-07-31T20:39:45.753Z,2.67
2022-07-31T20:42:32.300Z,2.38
2022-07-31T20:45:18.255Z,2.50
2022-07-31T20:48:04.518Z,2.50
2022-07-31T20:50:51.081Z,2.42
2022-07-31T20:53:37.507Z,2.42
2022-07-31T20:56:23.729Z,2.72
2022-07-31T20:59:10.024Z,2.25
2022-07-31T21:01:59.982Z,2.38
2022-07-31T21:04:45.947Z,2.28
2022-07-31T21:07:32.064Z,2.47
2022-07-31T21:10:18.132Z,2.17
2022-07-31T21:13:04.415Z,2.37
2022-07-31T21:15:51.458Z,2.38
2022-07-31T21:18:43.042Z,2.30
2022-07-31T21:21:30.069Z,2.20
2022-07-31T21:24:16.351Z,2.20
2022-07-31T21:27:05.148Z,2.42
2022-07-31T21:29:55.149Z,2.20
2022-07-31T21:32:43.084Z,2.30
2022-07-31T21:35:36.337Z,2.17
2022-07-31T21:38:23.857Z,2.35
2022-07-31T21:41:09.776Z,2.70
2022-07-31T21:43:58.527Z,2.55
2022-07-31T21:46:48.215Z,2.30
2022-07-31T21:49:38.867Z,2.58
2022-07-31T21:52:27.292Z,2.40
2022-07-31T21:55:13.562Z,2.50
2022-07-31T21:58:00.168Z,2.10
2022-07-31T22:03:33.077Z,2.65
2022-07-31T22:06:37.671Z,2.47
2022-07-31T22:09:26.593Z,2.55
2022-07-31T22:12:12.384Z,2.67
2022-07-31T22:14:58.453Z,2.35
2022-07-31T22:17:46.749Z,2.50
2022-07-31T22:20:33.247Z,2.53
2022-07-31T22:23:19.659Z,2.28
2022-07-31T22:26:06.373Z,2.75
2022-07-31T22:28:53.554Z,2.70
2022-07-31T22:31:39.797Z,2.40
2022-07-31T22:34:37.744Z,2.30
2022-07-31T22:37:26.080Z,2.50
2022-07-31T22:40:12.451Z,2.70
2022-07-31T22:42:59.278Z,2.50
2022-07-31T22:45:48.914Z,2.20
2022-07-31T22:48:36.188Z,2.30
2022-07-31T22:51:22.133Z,2.50
2022-07-31T22:54:08.021Z,2.73
2022-07-31T22:56:54.276Z,2.60
2022-07-31T22:59:43.174Z,2.72
2022-07-31T23:02:29.978Z,3.30
2022-07-31T23:05:16.437Z,2.17
2022-07-31T23:08:03.030Z,2.58
2022-07-31T23:10:48.979Z,2.60
2022-07-31T23:13:35.393Z,2.60
2022-07-31T23:16:21.708Z,2.40
2022-07-31T23:19:07.841Z,2.20
2022-07-31T23:21:54.023Z,2.47
2022-07-31T23:24:39.830Z,2.20
2022-07-31T23:27:26.108Z,2.30
2022-07-31T23:30:12.765Z,2.63
2022-07-31T23:32:58.862Z,2.28
2022-07-31T23:35:44.728Z,2.30
2022-07-31T23:38:30.518Z,2.27
2022-07-31T23:41:36.468Z,2.10
2022-07-31T23:44:25.130Z,2.55
2022-07-31T23:47:11.625Z,2.80
2022-07-31T23:50:04.042Z,2.47
2022-07-31T23:52:50.264Z,2.20
2022-07-31T23:55:38.508Z,2.38
2022-07-31T23:58:28.725Z,2.17
